East Sutton Ridge, Vermont
Current Conditions -  °F | °C
As of 5:55 PM on Tuesday 25 Nov 2014 (Local Time) from KCDA Reporting Station
Clear Clear  
Wind Chill: 37°   Ceiling: Unl
Heat Index: 40°   Visibility: 10mi
Dew Point: 22°   Wind: 5mph
Humidity: 47%   Direction: 200°SSW
Pressure: 29.95"   Gusts: NA
Location:  44.6632°N, 72.0391°W
Report Text: KCDA 252255Z AUTO 20004KT 10SM CLR 05/M06 A2995 RMK AO2 T00471057
Loading
Personal Weather Stations






























Interactive Weather Map New forecast layout! Learn more

10-Day Weather Forecast

Advertisements
Track Severe Weather on mobile